Time;durP1;ratioP1;P1;durP2;ratioP2;P2;SDS_P1;SDS_P2;PMS_P1;PMS_P2;Temp;Humidity;BMP_temperature;BMP_pressure;BME280_temperature;BME280_humidity;BME280_pressure;Samples;Min_cycle;Max_cycle;Signal;HPM_P1;HPM_P2
2021/11/06 00:00:31;;;;;;;11.05;7.03;;;;;;;6.01;100.00;100949.66;6270783;28;20495;-71
2021/11/06 00:03:32;;;;;;;11.73;7.70;;;;;;;5.97;100.00;100948.06;6270431;28;20044;-71
2021/11/06 00:06:33;;;;;;;10.18;6.90;;;;;;;5.92;100.00;100958.53;6270965;28;20041;-71
2021/11/06 00:09:33;;;;;;;11.70;7.68;;;;;;;5.98;100.00;100975.69;6296357;28;20127;-72
2021/11/06 00:12:35;;;;;;;12.43;7.32;;;;;;;5.86;100.00;100971.63;6295145;28;20045;-71
2021/11/06 00:15:36;;;;;;;10.40;7.30;;;;;;;5.79;100.00;100967.53;6294857;28;20040;-71
2021/11/06 00:18:37;;;;;;;14.25;6.95;;;;;;;5.80;100.00;100969.22;6278291;28;20127;-71
2021/11/06 00:21:38;;;;;;;11.77;7.22;;;;;;;5.71;100.00;100969.47;6295219;28;20060;-70
2021/11/06 00:24:39;;;;;;;14.40;7.75;;;;;;;5.75;100.00;100966.75;6272734;28;20048;-70
2021/11/06 00:27:41;;;;;;;10.45;5.93;;;;;;;5.73;100.00;100973.72;6270191;28;20075;-70
2021/11/06 00:30:41;;;;;;;10.45;6.25;;;;;;;5.80;100.00;100967.47;6286661;28;20049;-70
2021/11/06 00:33:42;;;;;;;7.95;5.70;;;;;;;5.88;100.00;100962.09;6269833;28;20044;-70
2021/11/06 00:36:43;;;;;;;10.32;6.13;;;;;;;5.95;100.00;100967.97;6236836;28;20049;-71
2021/11/06 00:39:44;;;;;;;10.55;6.00;;;;;;;5.99;100.00;100965.28;6269673;28;20491;-70
2021/11/06 00:42:45;;;;;;;10.45;5.93;;;;;;;5.99;100.00;100969.59;6270853;28;20506;-70
2021/11/06 00:45:46;;;;;;;8.05;5.43;;;;;;;5.98;100.00;100979.13;6269900;28;20075;-70
2021/11/06 00:48:46;;;;;;;11.45;5.78;;;;;;;5.97;100.00;100966.19;6274717;28;20459;-70
2021/11/06 00:51:47;;;;;;;7.95;5.05;;;;;;;5.97;100.00;100973.97;6295568;28;20506;-71
2021/11/06 00:54:48;;;;;;;7.80;4.85;;;;;;;5.90;100.00;100977.59;6295667;28;20037;-71
2021/11/06 00:57:49;;;;;;;7.93;5.45;;;;;;;5.85;100.00;100986.34;6295560;28;20132;-71
2021/11/06 01:00:50;;;;;;;9.73;5.97;;;;;;;5.70;100.00;100991.06;6288688;28;20507;-71
2021/11/06 01:03:51;;;;;;;8.27;5.57;;;;;;;5.65;100.00;101002.38;6274492;28;20130;-71
2021/11/06 01:06:52;;;;;;;11.27;5.93;;;;;;;5.69;100.00;101010.09;6274769;28;20491;-71
2021/11/06 01:09:52;;;;;;;10.18;5.50;;;;;;;5.68;100.00;101005.78;6275699;28;20049;-71
2021/11/06 01:12:53;;;;;;;8.15;5.18;;;;;;;5.69;100.00;101010.09;6274445;28;20076;-70
2021/11/06 01:15:54;;;;;;;10.07;5.15;;;;;;;5.68;100.00;101014.41;6257637;28;20049;-70
2021/11/06 01:18:56;;;;;;;9.20;5.25;;;;;;;5.69;100.00;101010.09;6258167;28;20084;-71
2021/11/06 01:21:57;;;;;;;9.63;5.50;;;;;;;5.63;100.00;101014.53;6274360;28;20033;-70
2021/11/06 01:24:57;;;;;;;9.88;5.40;;;;;;;5.61;100.00;101018.88;6274072;28;20454;-71
2021/11/06 01:27:58;;;;;;;8.07;5.53;;;;;;;5.59;100.00;101025.00;6257696;28;20458;-70
2021/11/06 01:30:59;;;;;;;9.52;6.03;;;;;;;5.59;100.00;101019.81;6274032;28;20044;-71
2021/11/06 01:34:00;;;;;;;8.48;5.25;;;;;;;5.54;100.00;101035.47;6274086;28;20049;-71
2021/11/06 01:37:01;;;;;;;10.07;5.57;;;;;;;5.58;100.00;101026.75;6257224;28;20064;-71
2021/11/06 01:40:08;;;;;;;9.23;5.03;;;;;;;5.59;100.00;101030.19;6275032;28;20041;-70
2021/11/06 01:43:09;;;;;;;8.25;5.32;;;;;;;5.54;100.00;101027.72;6274864;28;20068;-71
2021/11/06 01:46:10;;;;;;;7.82;5.00;;;;;;;5.55;100.00;101031.97;6273965;28;20057;-71
2021/11/06 01:49:11;;;;;;;9.88;4.80;;;;;;;5.57;100.00;101042.31;6273508;28;20123;-71
2021/11/06 01:52:12;;;;;;;9.45;5.03;;;;;;;5.56;100.00;101046.66;6273704;28;20048;-71
2021/11/06 01:55:13;;;;;;;10.10;4.65;;;;;;;5.62;100.00;101041.31;6273459;28;20045;-71
2021/11/06 01:58:14;;;;;;;9.35;4.90;;;;;;;5.63;100.00;101050.78;6273274;28;20041;-70
2021/11/06 02:01:15;;;;;;;10.60;4.82;;;;;;;5.62;100.00;101040.44;6274912;28;20133;-70
2021/11/06 02:04:16;;;;;;;8.77;4.55;;;;;;;5.57;100.00;101044.91;6273202;28;20051;-70
2021/11/06 02:07:19;;;;;;;12.25;5.55;;;;;;;5.52;100.00;101045.03;6273225;28;20041;-70
2021/11/06 02:10:19;;;;;;;;;;;;;;;5.54;100.00;101043.25;6273552;28;20052;-71
2021/11/06 02:13:20;;;;;;;7.55;4.68;;;;;;;5.56;100.00;101046.66;6273733;28;19921;-70
2021/11/06 02:16:22;;;;;;;12.60;4.65;;;;;;;5.48;100.00;101056.34;6272727;28;20041;-70
2021/11/06 02:19:28;;;;;;;6.38;4.13;;;;;;;5.51;100.00;101064.00;6274242;28;20041;-70
2021/11/06 02:22:32;;;;;;;6.55;4.15;;;;;;;5.45;100.00;101064.16;6274145;28;20041;-71
2021/11/06 02:25:33;;;;;;;7.35;4.20;;;;;;;5.42;100.00;101072.84;6272852;28;20052;-71
2021/11/06 02:28:34;;;;;;;8.35;5.13;;;;;;;5.40;100.00;101074.63;6256437;28;20052;-70
2021/11/06 02:31:35;;;;;;;6.93;4.43;;;;;;;5.37;100.00;101077.28;6272617;28;20407;-71
2021/11/06 02:34:36;;;;;;;8.07;4.70;;;;;;;5.33;100.00;101074.78;6256131;28;20045;-70
2021/11/06 02:37:37;;;;;;;6.95;4.22;;;;;;;5.31;100.00;101079.16;6255793;28;20068;-71
2021/11/06 02:40:39;;;;;;;8.32;4.38;;;;;;;5.31;100.00;101079.16;6256023;28;20045;-70
2021/11/06 02:43:39;;;;;;;10.18;5.40;;;;;;;5.25;100.00;101083.59;6273590;28;20499;-70
2021/11/06 02:46:41;;;;;;;8.95;4.93;;;;;;;5.22;100.00;101082.81;6272382;28;20064;-71
2021/11/06 02:49:42;;;;;;;9.60;4.93;;;;;;;5.17;100.00;101085.50;6295413;28;20468;-71
2021/11/06 02:52:43;;;;;;;12.23;4.88;;;;;;;5.12;100.00;101086.47;6280465;28;20066;-71
2021/11/06 02:55:44;;;;;;;8.02;4.72;;;;;;;5.09;100.00;101095.19;6298092;28;20055;-70
2021/11/06 02:58:45;;;;;;;10.50;4.55;;;;;;;5.05;100.00;101083.19;6298176;28;20036;-70
2021/11/06 03:01:46;;;;;;;7.63;4.65;;;;;;;5.06;100.00;101090.06;6280449;28;20036;-74
2021/11/06 03:04:47;;;;;;;7.43;4.75;;;;;;;5.04;100.00;101084.06;6297923;28;20460;-74
2021/11/06 03:07:48;;;;;;;8.93;5.10;;;;;;;4.99;100.00;101081.56;6279983;28;20505;-74
2021/11/06 03:10:49;;;;;;;7.88;4.13;;;;;;;5.01;100.00;101084.13;6296712;28;20045;-75
2021/11/06 03:13:50;;;;;;;8.65;4.90;;;;;;;4.97;100.00;101087.69;6297809;28;20067;-74
2021/11/06 03:16:50;;;;;;;9.60;4.78;;;;;;;4.93;100.00;101093.78;6296653;28;20057;-74
2021/11/06 03:19:51;;;;;;;10.68;4.28;;;;;;;4.91;100.00;101095.56;6296412;28;20514;-73
2021/11/06 03:22:57;;;;;;;8.52;4.82;;;;;;;4.92;100.00;101095.53;6297503;28;20041;-74
2021/11/06 03:25:58;;;;;;;7.78;4.65;;;;;;;4.88;100.00;101098.19;6295302;28;20478;-74
2021/11/06 03:28:59;;;;;;;7.70;4.80;;;;;;;4.80;100.00;101106.97;6297329;28;20037;-74
2021/11/06 03:32:01;;;;;;;10.38;5.20;;;;;;;4.82;100.00;101119.88;6296109;28;20037;-74
2021/11/06 03:35:03;;;;;;;7.18;4.28;;;;;;;4.82;100.00;101128.50;6329858;28;20131;-74
2021/11/06 03:38:04;;;;;;;10.63;5.05;;;;;;;4.81;100.00;101128.50;6295963;28;20063;-74
2021/11/06 03:41:04;;;;;;;11.80;4.70;;;;;;;4.81;100.00;101128.50;6295935;28;20483;-74
2021/11/06 03:44:06;;;;;;;8.23;4.45;;;;;;;4.76;100.00;101138.94;6297053;28;20052;-74
2021/11/06 03:47:06;;;;;;;8.25;4.60;;;;;;;4.74;100.00;101130.38;6296939;28;20580;-74
2021/11/06 03:50:09;;;;;;;12.23;4.95;;;;;;;4.69;100.00;101133.91;6296774;28;20056;-74
2021/11/06 03:53:10;;;;;;;10.25;4.65;;;;;;;4.70;100.00;101133.91;6295947;28;20391;-74
2021/11/06 03:56:10;;;;;;;10.40;4.60;;;;;;;4.73;100.00;101143.31;6295602;28;20044;-74
2021/11/06 03:59:11;;;;;;;9.05;4.97;;;;;;;4.75;100.00;101149.31;6279019;28;20102;-74
2021/11/06 04:02:12;;;;;;;9.70;4.70;;;;;;;4.71;100.00;101143.34;6296611;28;20086;-74
2021/11/06 04:05:13;;;;;;;8.40;4.95;;;;;;;4.68;100.00;101132.22;6295361;28;20063;-74
2021/11/06 04:08:14;;;;;;;7.28;4.47;;;;;;;4.62;100.00;101130.59;6261911;28;20053;-74
2021/11/06 04:11:15;;;;;;;7.45;4.38;;;;;;;4.60;100.00;101135.81;6295230;28;20048;-74
2021/11/06 04:14:16;;;;;;;10.68;4.72;;;;;;;4.62;100.00;101126.28;6295393;28;20087;-74
2021/11/06 04:17:17;;;;;;;8.60;4.60;;;;;;;4.64;100.00;101131.44;6295169;28;20043;-74
2021/11/06 04:20:18;;;;;;;6.28;4.53;;;;;;;4.63;100.00;101137.47;6294929;28;20052;-74
2021/11/06 04:23:19;;;;;;;8.85;4.60;;;;;;;4.55;100.00;101134.19;6295157;28;20036;-74
2021/11/06 04:26:20;;;;;;;10.13;4.50;;;;;;;4.56;100.00;101128.13;6328778;28;20075;-74
2021/11/06 04:29:21;;;;;;;7.00;4.18;;;;;;;4.55;100.00;101134.19;6294909;28;20048;-74
2021/11/06 04:32:22;;;;;;;10.52;5.22;;;;;;;4.56;100.00;101126.41;6296384;28;20082;-74
2021/11/06 04:35:23;;;;;;;9.25;4.78;;;;;;;4.52;100.00;101134.25;6295838;28;20074;-74
2021/11/06 04:38:24;;;;;;;8.07;4.43;;;;;;;4.52;100.00;101126.50;6294829;28;20539;-74
2021/11/06 04:41:26;;;;;;;9.90;5.30;;;;;;;4.56;100.00;101126.41;6294943;28;20051;-74
2021/11/06 04:44:27;;;;;;;10.27;5.15;;;;;;;4.59;100.00;101126.34;6295855;28;20052;-74
2021/11/06 04:47:28;;;;;;;10.60;5.38;;;;;;;4.54;100.00;101130.75;6278072;28;20110;-74
2021/11/06 04:50:29;;;;;;;8.57;5.32;;;;;;;4.47;100.00;101136.06;6295853;28;20052;-74
2021/11/06 04:53:30;;;;;;;9.93;5.22;;;;;;;4.58;100.00;101134.97;6277964;28;20127;-74
2021/11/06 04:56:31;;;;;;;8.35;4.68;;;;;;;4.57;100.00;101141.03;6295786;28;20037;-74
2021/11/06 04:59:31;;;;;;;8.48;5.07;;;;;;;4.62;100.00;101130.59;6294580;28;20531;-74
2021/11/06 05:02:32;;;;;;;8.25;4.70;;;;;;;4.56;100.00;101131.56;6294678;28;20514;-74
2021/11/06 05:05:33;;;;;;;8.00;4.90;;;;;;;4.56;100.00;101147.06;6294612;28;20143;-74
2021/11/06 05:08:34;;;;;;;7.50;5.05;;;;;;;4.57;100.00;101137.59;6277811;28;20079;-74
2021/11/06 05:11:35;;;;;;;9.60;5.00;;;;;;;4.61;100.00;101154.75;6277841;28;20041;-75
2021/11/06 05:14:36;;;;;;;7.57;4.85;;;;;;;4.70;100.00;101152.00;6295629;28;20094;-74
2021/11/06 05:17:37;;;;;;;6.80;4.55;;;;;;;4.69;100.00;101152.88;6294411;28;20090;-74
2021/11/06 05:20:38;;;;;;;7.72;4.82;;;;;;;4.82;100.00;101176.78;6274554;28;20045;-74
2021/11/06 05:23:39;;;;;;;10.88;4.90;;;;;;;4.80;100.00;101181.13;6286932;28;20048;-74
2021/11/06 05:26:40;;;;;;;8.70;5.38;;;;;;;4.85;100.00;101187.03;6296607;28;20471;-74
2021/11/06 05:29:40;;;;;;;7.35;4.68;;;;;;;4.76;100.00;101180.31;6295599;28;20063;-74
2021/11/06 05:32:41;;;;;;;9.70;5.30;;;;;;;4.73;100.00;101195.88;6278758;28;20119;-74
2021/11/06 05:35:42;;;;;;;16.20;8.40;;;;;;;4.64;100.00;101199.50;6278583;28;20451;-74
2021/11/06 05:38:43;;;;;;;11.45;6.28;;;;;;;4.57;100.00;101197.91;6278652;28;20052;-74
2021/11/06 05:41:43;;;;;;;10.57;6.07;;;;;;;4.55;100.00;101197.09;6296618;28;20033;-74
2021/11/06 05:44:44;;;;;;;10.88;5.63;;;;;;;4.55;100.00;101202.25;6278795;28;20048;-74
2021/11/06 05:47:45;;;;;;;13.07;6.65;;;;;;;4.41;100.00;101199.91;6297977;28;20422;-74
2021/11/06 05:50:45;;;;;;;10.90;5.43;;;;;;;4.47;100.00;101198.97;6278935;28;20518;-74
2021/11/06 05:53:46;;;;;;;8.10;5.35;;;;;;;4.46;100.00;101211.91;6274969;28;20048;-74
2021/11/06 05:56:47;;;;;;;10.23;5.43;;;;;;;4.47;100.00;101219.63;6280921;28;20040;-74
2021/11/06 05:59:48;;;;;;;10.40;6.07;;;;;;;4.95;100.00;101221.34;6281601;28;20633;-74
2021/11/06 06:02:49;;;;;;;9.20;5.85;;;;;;;4.87;100.00;101224.06;6281981;28;20139;-74
2021/11/06 06:05:50;;;;;;;11.48;5.35;;;;;;;4.96;100.00;101234.25;6299509;28;20052;-74
2021/11/06 06:08:50;;;;;;;7.28;5.18;;;;;;;5.00;100.00;101241.09;6275180;28;20048;-74
2021/11/06 06:11:51;;;;;;;8.60;5.03;;;;;;;5.08;100.00;101227.13;6274493;28;20044;-74
2021/11/06 06:14:52;;;;;;;8.18;4.88;;;;;;;5.22;99.50;101236.31;6273207;28;20037;-74
2021/11/06 06:17:53;;;;;;;7.93;5.28;;;;;;;5.25;100.00;101238.88;6273091;28;20192;-74
2021/11/06 06:20:54;;;;;;;7.15;4.90;;;;;;;5.30;98.08;101248.28;6273342;28;20114;-74
2021/11/06 06:23:55;;;;;;;8.27;5.35;;;;;;;5.35;99.00;101257.63;6273377;28;20045;-74
2021/11/06 06:26:55;;;;;;;9.35;4.93;;;;;;;5.50;98.72;101271.13;6299370;28;20040;-74
2021/11/06 06:29:56;;;;;;;7.50;5.32;;;;;;;5.52;98.64;101269.38;6298811;28;20036;-74
2021/11/06 06:32:57;;;;;;;8.98;5.53;;;;;;;5.59;97.02;101279.59;6280920;28;20089;-74
2021/11/06 06:35:58;;;;;;;10.38;5.57;;;;;;;5.65;100.00;101271.69;6286845;28;20102;-74
2021/11/06 06:38:59;;;;;;;8.00;5.03;;;;;;;5.72;97.53;101280.16;6272502;28;20048;-74
2021/11/06 06:41:59;;;;;;;9.15;5.03;;;;;;;5.89;94.09;101286.72;6256089;28;20037;-74
2021/11/06 06:45:00;;;;;;;7.85;5.32;;;;;;;5.98;94.21;101286.56;6255976;28;20072;-74
2021/11/06 06:48:01;;;;;;;7.72;5.07;;;;;;;6.09;93.58;101286.31;6273612;28;20052;-74
2021/11/06 06:51:02;;;;;;;7.75;5.45;;;;;;;6.19;90.79;101282.63;6273467;28;20056;-74
2021/11/06 06:54:02;;;;;;;10.30;4.60;;;;;;;6.48;87.68;101296.66;6272246;28;20377;-74
2021/11/06 06:57:04;;;;;;;8.05;4.85;;;;;;;6.56;89.34;101292.13;6272274;28;20091;-74
2021/11/06 07:00:07;;;;;;;7.68;4.55;;;;;;;6.71;84.77;101309.88;6273120;28;20488;-74
2021/11/06 07:03:08;;;;;;;9.63;4.30;;;;;;;6.94;83.94;101317.13;6286405;28;20127;-74
2021/11/06 07:06:09;;;;;;;9.05;4.93;;;;;;;7.10;86.55;101307.16;6297823;28;20051;-74
2021/11/06 07:09:12;;;;;;;7.07;4.38;;;;;;;7.30;86.74;101310.97;6280567;28;20037;-74
2021/11/06 07:12:13;;;;;;;8.18;4.43;;;;;;;7.31;82.40;101297.97;6292719;28;20044;-74
2021/11/06 07:15:13;;;;;;;7.00;4.43;;;;;;;7.53;81.63;101294.75;6279265;28;20089;-74
2021/11/06 07:18:15;;;;;;;6.07;4.22;;;;;;;7.53;80.71;101299.94;6272786;28;20472;-74
2021/11/06 07:21:16;;;;;;;8.82;4.38;;;;;;;7.69;82.07;101306.41;6275300;28;20049;-74
2021/11/06 07:24:16;;;;;;;7.30;4.10;;;;;;;7.54;78.09;101307.69;6297140;28;20044;-74
2021/11/06 07:27:17;;;;;;;7.10;4.40;;;;;;;7.82;78.57;101304.28;6279062;28;20036;-75
2021/11/06 07:30:21;;;;;;;6.07;3.33;;;;;;;7.81;75.67;101306.03;6270909;28;20069;-75
2021/11/06 07:33:22;;;;;;;7.25;3.75;;;;;;;8.15;74.35;101302.41;6291883;28;20047;-75
2021/11/06 07:36:24;;;;;;;7.03;4.00;;;;;;;8.39;74.22;101316.41;6279295;28;20048;-74
2021/11/06 07:39:26;;;;;;;17.10;4.47;;;;;;;8.54;71.12;101311.66;6296980;28;20037;-74
2021/11/06 07:42:27;;;;;;;8.05;4.28;;;;;;;8.44;74.58;101316.28;6296901;28;20037;-75
2021/11/06 07:45:28;;;;;;;5.68;4.05;;;;;;;8.68;71.68;101310.28;6297033;28;20406;-75
2021/11/06 07:48:29;;;;;;;6.82;4.15;;;;;;;8.88;71.88;101301.81;6295741;28;20041;-70
2021/11/06 07:51:30;;;;;;;8.73;3.72;;;;;;;8.88;70.35;101283.59;6295434;28;20064;-70
2021/11/06 07:54:31;;;;;;;7.95;3.75;;;;;;;9.04;69.08;101296.09;6329140;28;20090;-71
2021/11/06 07:57:32;;;;;;;7.95;3.67;;;;;;;9.08;68.94;101300.28;6278934;28;20045;-70
2021/11/06 08:00:33;;;;;;;6.82;4.10;;;;;;;9.36;69.11;101296.69;6295273;28;20036;-71
2021/11/06 08:03:34;;;;;;;9.60;3.92;;;;;;;9.47;69.13;101303.22;6295337;28;20045;-70
2021/11/06 08:06:37;;;;;;;5.95;3.92;;;;;;;9.65;68.25;101299.06;6292881;28;20048;-70
2021/11/06 08:09:38;;;;;;;6.90;3.70;;;;;;;9.66;67.55;101306.00;6274895;28;20115;-71
2021/11/06 08:12:41;;;;;;;6.53;3.70;;;;;;;9.84;64.94;101304.47;6268315;28;20045;-71
2021/11/06 08:15:42;;;;;;;6.20;3.35;;;;;;;9.96;65.24;101310.94;6282537;28;20465;-71
2021/11/06 08:18:44;;;;;;;7.60;3.25;;;;;;;9.96;65.16;101299.69;6284840;28;20054;-70
2021/11/06 08:21:45;;;;;;;8.23;3.47;;;;;;;9.60;66.26;101293.19;6268911;28;20047;-70
2021/11/06 08:24:46;;;;;;;8.48;3.63;;;;;;;9.75;68.64;101288.31;6276952;28;20488;-70
2021/11/06 08:27:50;;;;;;;5.47;3.40;;;;;;;9.83;66.50;101294.94;6274479;28;20049;-70
2021/11/06 08:30:51;;;;;;;3.55;2.80;;;;;;;10.03;65.25;101299.38;6293429;28;20089;-70
2021/11/06 08:33:52;;;;;;;7.93;3.20;;;;;;;10.16;62.81;101312.78;6295821;28;20064;-70
2021/11/06 08:36:54;;;;;;;4.75;2.78;;;;;;;10.17;62.07;101318.84;6274713;28;20041;-71
2021/11/06 08:39:54;;;;;;;4.20;2.92;;;;;;;10.22;63.08;101325.59;6271390;28;20071;-71
2021/11/06 08:42:56;;;;;;;4.28;2.78;;;;;;;10.38;61.08;101328.47;6293006;28;20036;-70
2021/11/06 08:45:58;;;;;;;5.03;2.75;;;;;;;10.47;60.09;101335.94;6294696;28;20051;-71
2021/11/06 08:48:58;;;;;;;4.20;2.95;;;;;;;11.05;58.87;101347.50;6292120;28;20476;-71
2021/11/06 08:51:59;;;;;;;3.20;2.45;;;;;;;11.19;57.71;101352.13;6290381;28;20106;-71
2021/11/06 08:55:00;;;;;;;4.82;2.95;;;;;;;11.05;58.65;101356.16;6277666;28;20044;-70
2021/11/06 08:58:01;;;;;;;5.20;2.63;;;;;;;11.22;57.32;101358.09;6295708;28;20165;-70
2021/11/06 09:01:03;;;;;;;3.03;2.50;;;;;;;11.37;59.64;101367.03;6294310;28;20044;-70
2021/11/06 09:04:04;;;;;;;3.95;2.50;;;;;;;10.97;58.33;101365.25;6291521;28;20055;-70
2021/11/06 09:07:05;;;;;;;3.90;2.38;;;;;;;11.17;58.03;101377.47;6273522;28;20408;-70
2021/11/06 09:10:09;;;;;;;6.07;2.65;;;;;;;11.39;57.19;101373.03;6276355;28;20483;-70
2021/11/06 09:13:11;;;;;;;4.55;2.47;;;;;;;11.75;56.00;101372.31;6295499;28;20048;-70
2021/11/06 09:16:12;;;;;;;4.03;2.25;;;;;;;11.92;55.94;101370.72;6295314;28;20044;-70
2021/11/06 09:19:13;;;;;;;4.22;2.25;;;;;;;12.02;54.65;101361.53;6260812;28;20044;-71
2021/11/06 09:22:14;;;;;;;3.53;2.20;;;;;;;11.76;54.50;101366.19;6294526;28;20131;-71
2021/11/06 09:25:15;;;;;;;4.75;2.88;;;;;;;12.06;54.00;101363.94;6300188;28;20525;-70
2021/11/06 09:28:16;;;;;;;4.95;3.03;;;;;;;12.09;55.91;101358.59;6299964;28;20091;-70
2021/11/06 09:31:18;;;;;;;3.30;2.40;;;;;;;12.23;55.20;101342.25;6298618;28;20479;-70
2021/11/06 09:34:19;;;;;;;3.17;2.15;;;;;;;12.06;54.40;101337.78;6299786;28;20041;-68
2021/11/06 09:37:19;;;;;;;5.38;2.00;;;;;;;12.03;52.88;101334.47;6282046;28;20543;-73
2021/11/06 09:40:21;;;;;;;2.55;2.13;;;;;;;12.09;52.62;101348.13;6298352;28;20048;-73
2021/11/06 09:43:22;;;;;;;9.77;2.38;;;;;;;12.02;52.44;101338.84;6299593;28;20044;-72
2021/11/06 09:46:23;;;;;;;5.00;2.80;;;;;;;12.14;52.51;101344.44;6299581;28;20044;-72
2021/11/06 09:49:24;;;;;;;4.82;2.50;;;;;;;12.36;52.51;101346.91;6297880;28;20052;-72
2021/11/06 09:52:25;;;;;;;4.28;2.30;;;;;;;12.59;52.59;101341.38;6299494;28;20544;-72
2021/11/06 09:55:26;;;;;;;4.85;2.58;;;;;;;12.63;52.81;101348.16;6299128;28;20052;-72
2021/11/06 09:58:27;;;;;;;4.07;2.50;;;;;;;12.81;54.09;101349.03;6298117;28;20055;-72
2021/11/06 10:01:30;;;;;;;3.88;2.88;;;;;;;12.77;52.25;101355.34;6297798;28;20048;-72
2021/11/06 10:04:31;;;;;;;5.65;2.67;;;;;;;12.89;51.54;101351.28;6299149;28;20048;-72
2021/11/06 10:07:32;;;;;;;10.50;2.75;;;;;;;13.13;51.41;101350.94;6299081;28;20052;-72
2021/11/06 10:10:35;;;;;;;3.90;2.83;;;;;;;13.27;52.13;101361.56;6295280;28;20041;-72
2021/11/06 10:13:51;;;;;;;4.63;3.00;;;;;;;13.14;50.89;101360.50;6256313;28;20048;-73
2021/11/06 10:16:58;;;;;;;3.17;2.25;;;;;;;13.23;52.29;101358.25;6289445;28;20037;-72
2021/11/06 10:20:17;;;;;;;4.15;2.95;;;;;;;13.43;52.47;101362.50;6295850;28;20098;-72
2021/11/06 10:23:19;;;;;;;3.35;2.45;;;;;;;13.46;51.54;101361.50;6286627;28;20053;-73
2021/11/06 10:26:21;;;;;;;4.43;2.33;;;;;;;13.59;50.40;101359.06;6239454;28;20060;-72
2021/11/06 10:29:22;;;;;;;4.15;2.63;;;;;;;13.54;51.40;101351.44;6272584;28;20056;-73
2021/11/06 10:32:23;;;;;;;5.85;2.78;;;;;;;13.34;50.06;101357.72;6273593;28;20033;-73
2021/11/06 10:35:26;;;;;;;4.55;2.38;;;;;;;13.33;51.17;101360.44;6272014;28;20079;-72
2021/11/06 10:38:28;;;;;;;3.92;2.28;;;;;;;13.39;50.76;101365.38;6272472;28;20540;-73
2021/11/06 10:41:32;;;;;;;3.05;2.28;;;;;;;13.63;49.21;101360.59;6275623;28;20377;-73
2021/11/06 10:44:32;;;;;;;3.92;2.15;;;;;;;13.26;49.15;101354.63;6297035;28;20045;-73
2021/11/06 10:48:01;;;;;;;3.90;2.83;;;;;;;13.44;48.51;101337.97;6297058;28;20478;-72
2021/11/06 10:51:07;;;;;;;2.45;2.00;;;;;;;13.74;49.05;101325.94;6297182;28;20056;-72
2021/11/06 10:54:08;;;;;;;6.72;1.90;;;;;;;13.67;48.05;101323.66;6296272;28;20498;-73
2021/11/06 10:57:08;;;;;;;2.10;1.58;;;;;;;13.69;47.30;101319.19;6297553;28;20045;-73
2021/11/06 11:00:18;;;;;;;2.85;1.92;;;;;;;13.68;48.50;101321.88;6279791;28;20029;-72
2021/11/06 11:03:31;;;;;;;2.97;1.50;;;;;;;13.98;46.46;101321.13;6296040;28;20040;-72
2021/11/06 11:06:50;;;;;;;3.85;2.00;;;;;;;13.87;46.54;101313.84;6296562;28;20051;-72
2021/11/06 11:09:51;;;;;;;6.25;2.80;;;;;;;13.74;46.16;101316.28;6298031;28;20097;-73
2021/11/06 11:13:12;;;;;;;2.63;1.67;;;;;;;13.77;46.49;101321.38;6297661;28;20723;-72
2021/11/06 11:16:16;;;;;;;3.50;1.85;;;;;;;13.91;46.58;101323.25;6297559;28;20044;-72
2021/11/06 11:19:18;;;;;;;2.92;1.90;;;;;;;13.99;45.48;101322.81;6296335;28;20414;-73
2021/11/06 11:22:24;;;;;;;3.95;1.88;;;;;;;14.12;45.95;101315.94;6297561;28;20051;-72
2021/11/06 11:25:27;;;;;;;5.68;2.00;;;;;;;13.90;47.47;101300.56;6296300;28;20045;-72
2021/11/06 11:28:29;;;;;;;4.60;1.83;;;;;;;14.19;46.72;101296.31;6312660;28;20415;-72
2021/11/06 11:31:30;;;;;;;2.25;1.92;;;;;;;14.22;45.56;101297.91;6296601;28;20060;-73
2021/11/06 11:34:31;;;;;;;3.97;1.90;;;;;;;13.96;46.08;101295.00;6295823;28;20068;-72
2021/11/06 11:37:32;;;;;;;2.28;1.65;;;;;;;13.95;45.09;101280.16;6295867;28;20062;-72
2021/11/06 11:40:36;;;;;;;3.33;1.70;;;;;;;13.91;45.56;101278.63;6295822;28;20066;-72
2021/11/06 11:44:16;;;;;;;4.25;2.05;;;;;;;14.13;49.03;101283.53;6295663;28;20051;-72
2021/11/06 11:47:52;;;;;;;2.55;1.77;;;;;;;14.16;44.91;101267.59;6295623;28;20087;-73
2021/11/06 11:51:01;;;;;;;2.20;1.60;;;;;;;14.26;44.90;101274.03;6295266;28;20482;-69
2021/11/06 11:54:04;;;;;;;8.98;1.75;;;;;;;14.32;48.09;101280.72;6279019;28;20143;-69
2021/11/06 11:57:13;;;;;;;3.75;1.70;;;;;;;14.07;44.75;101291.75;6297079;28;20502;-69
2021/11/06 12:00:17;;;;;;;2.42;1.60;;;;;;;14.06;49.69;101288.28;6278628;28;20057;-69
2021/11/06 12:03:31;;;;;;;2.50;1.75;;;;;;;14.29;45.10;101286.16;6296469;28;20441;-69
2021/11/06 12:06:37;;;;;;;3.13;1.80;;;;;;;14.24;48.38;101282.94;6295330;28;20048;-70
2021/11/06 12:09:38;;;;;;;2.45;1.60;;;;;;;14.19;48.62;101282.34;6296407;28;20472;-69
2021/11/06 12:12:39;;;;;;;4.10;1.70;;;;;;;14.20;45.81;101281.41;6295056;28;20052;-68
2021/11/06 12:15:55;;;;;;;3.00;1.67;;;;;;;14.15;44.95;101278.22;6278363;28;20068;-69
2021/11/06 12:18:59;;;;;;;2.38;1.45;;;;;;;14.24;47.37;101275.06;6295024;28;20376;-69
2021/11/06 12:22:08;;;;;;;2.38;1.80;;;;;;;14.31;45.35;101277.25;6296300;28;20406;-69
2021/11/06 12:25:21;;;;;;;2.92;1.60;;;;;;;14.24;45.59;101278.50;6294885;28;20040;-69
2021/11/06 12:28:23;;;;;;;4.63;1.90;;;;;;;14.27;44.74;101264.41;6296095;28;20503;-69
2021/11/06 12:31:31;;;;;;;5.28;1.80;;;;;;;14.30;46.57;101274.69;6294882;28;20051;-69
2021/11/06 12:34:48;;;;;;;3.85;2.13;;;;;;;14.19;44.57;101266.59;6328301;28;20414;-69
2021/11/06 12:37:54;;;;;;;2.13;1.30;;;;;;;13.87;44.32;101266.63;6295917;28;20075;-69
2021/11/06 12:40:56;;;;;;;2.45;1.60;;;;;;;13.83;46.16;101258.06;6296471;28;20576;-69
2021/11/06 12:43:58;;;;;;;5.78;1.50;;;;;;;13.95;46.48;101274.06;6295661;28;20082;-70
2021/11/06 12:47:08;;;;;;;3.08;2.03;;;;;;;14.05;46.10;101262.13;6294679;28;20070;-69
2021/11/06 12:50:19;;;;;;;3.70;1.83;;;;;;;14.13;44.89;101270.41;6294660;28;20087;-73
2021/11/06 12:53:35;;;;;;;3.10;1.83;;;;;;;14.13;46.78;101269.59;6292811;28;20502;-73
2021/11/06 12:56:41;;;;;;;2.95;2.00;;;;;;;13.96;45.28;101268.75;6295439;28;20045;-73
2021/11/06 12:59:46;;;;;;;3.38;1.92;;;;;;;14.10;46.40;101268.81;6303684;28;20072;-73
2021/11/06 13:02:59;;;;;;;5.07;2.05;;;;;;;13.93;44.74;101263.66;6293113;28;20136;-73
2021/11/06 13:06:00;;;;;;;3.20;1.70;;;;;;;13.81;45.70;101259.94;6280004;28;20052;-72
2021/11/06 13:09:08;;;;;;;2.13;1.45;;;;;;;13.70;44.44;101260.53;6245431;28;20059;-73
2021/11/06 13:12:12;;;;;;;5.50;2.25;;;;;;;13.61;45.82;101254.94;6287915;28;20074;-72
2021/11/06 13:15:13;;;;;;;3.85;2.28;;;;;;;13.70;45.57;101251.81;6303602;28;20044;-72
2021/11/06 13:18:16;;;;;;;4.18;2.83;;;;;;;13.47;46.30;101246.06;6303574;28;20048;-73
2021/11/06 13:21:17;;;;;;;2.35;1.63;;;;;;;13.42;45.80;101249.84;6303718;28;20487;-73
2021/11/06 13:24:18;;;;;;;1.83;1.50;;;;;;;13.48;46.71;101247.72;6302469;28;20041;-73
2021/11/06 13:27:43;;;;;;;2.42;1.50;;;;;;;13.22;46.58;101243.88;6303582;28;20052;-72
2021/11/06 13:30:51;;;;;;;2.53;1.45;;;;;;;13.40;45.84;101243.84;6303769;28;20060;-72
2021/11/06 13:33:54;;;;;;;2.60;1.75;;;;;;;13.35;44.71;101243.25;6303478;28;20479;-72
2021/11/06 13:36:55;;;;;;;3.35;1.77;;;;;;;13.27;45.34;101244.47;6303865;28;20032;-73
2021/11/06 13:40:05;;;;;;;3.55;1.45;;;;;;;13.29;46.40;101242.63;6302411;28;20045;-69
2021/11/06 13:43:21;;;;;;;2.13;1.52;;;;;;;13.20;45.76;101245.72;6268707;28;20520;-73
2021/11/06 13:46:26;;;;;;;4.00;1.95;;;;;;;12.89;46.29;101251.75;6299324;28;20043;-72
2021/11/06 13:49:34;;;;;;;2.65;1.88;;;;;;;12.85;47.50;101245.81;6297647;28;20032;-72
2021/11/06 13:52:36;;;;;;;3.88;1.90;;;;;;;12.85;46.44;101237.09;6301988;28;20048;-72
2021/11/06 13:55:37;;;;;;;2.60;1.60;;;;;;;12.72;49.82;101241.25;6269223;28;20470;-73
2021/11/06 13:58:38;;;;;;;2.95;1.83;;;;;;;12.63;47.98;101245.19;6302229;28;20040;-70
2021/11/06 14:01:39;;;;;;;7.90;2.05;;;;;;;12.28;49.94;101245.19;6301974;28;20055;-70
2021/11/06 14:04:53;;;;;;;2.75;1.90;;;;;;;11.93;51.21;101247.75;6301945;28;20048;-69
2021/11/06 14:07:56;;;;;;;3.78;1.95;;;;;;;12.29;52.71;101245.13;6289561;28;20048;-70